Time;durP1;ratioP1;P1;durP2;ratioP2;P2;SDS_P1;SDS_P2;PMS_P1;PMS_P2;Temp;Humidity;BMP_temperature;BMP_pressure;BME280_temperature;BME280_humidity;BME280_pressure;Samples;Min_cycle;Max_cycle;Signal;HPM_P1;HPM_P2
2023/12/21 09:07:44;;;;;;;11.85;2.20;;;;;;;8.39;100.00;99150.72;5067985;27;20480;-72
2023/12/21 09:10:31;;;;;;;15.18;3.38;;;;;;;8.41;100.00;99145.34;5071086;28;20066;-71
2023/12/21 09:13:16;;;;;;;9.50;2.40;;;;;;;8.46;100.00;99135.34;5069310;28;20040;-72
2023/12/21 09:16:02;;;;;;;11.38;3.20;;;;;;;8.51;100.00;99164.94;5067572;28;20306;-73
2023/12/21 09:18:47;;;;;;;16.38;3.00;;;;;;;8.56;100.00;99157.56;5070675;28;20085;-72
2023/12/21 09:21:33;;;;;;;12.73;2.42;;;;;;;8.61;100.00;99141.44;5068776;28;20328;-73
2023/12/21 09:24:18;;;;;;;11.88;2.55;;;;;;;8.66;100.00;99149.09;5070030;28;20075;-72
2023/12/21 09:27:04;;;;;;;14.57;2.90;;;;;;;8.69;100.00;99146.25;5072167;28;20101;-73
2023/12/21 09:29:49;;;;;;;10.45;2.92;;;;;;;8.68;100.00;99140.09;5074665;28;20143;-72
2023/12/21 09:32:35;;;;;;;14.82;2.65;;;;;;;8.69;100.00;99133.03;5072965;28;21981;-73
2023/12/21 09:35:20;;;;;;;7.70;2.63;;;;;;;8.71;100.00;99136.41;5072429;28;20040;-73
2023/12/21 09:38:08;;;;;;;9.35;2.80;;;;;;;8.76;100.00;99113.22;5073060;28;20119;-72
2023/12/21 09:40:53;;;;;;;13.43;2.67;;;;;;;8.79;100.00;99107.75;5071982;28;20044;-72
2023/12/21 09:43:40;;;;;;;11.13;2.92;;;;;;;8.82;100.00;99118.09;5071722;28;20137;-73
2023/12/21 09:46:28;;;;;;;8.32;2.55;;;;;;;8.84;100.00;99115.38;5073103;28;20143;-73
2023/12/21 09:49:14;;;;;;;15.43;2.60;;;;;;;8.87;100.00;99114.31;5076669;28;20040;-74
2023/12/21 09:52:00;;;;;;;13.65;2.70;;;;;;;8.89;100.00;99109.78;5067653;28;20519;-73
2023/12/21 09:54:49;;;;;;;14.23;2.50;;;;;;;8.91;100.00;99089.41;5074746;28;20148;-73
2023/12/21 09:57:36;;;;;;;14.95;2.72;;;;;;;8.95;100.00;99093.53;5054461;28;20754;-72
2023/12/21 10:00:22;;;;;;;14.90;3.00;;;;;;;8.99;100.00;99087.09;5041549;28;20044;-72
2023/12/21 10:03:07;;;;;;;16.40;3.53;;;;;;;9.04;100.00;99087.63;5055446;28;20032;-73
2023/12/21 10:05:54;;;;;;;12.00;2.63;;;;;;;9.04;100.00;99074.44;5050219;28;20056;-73
2023/12/21 10:08:41;;;;;;;11.20;2.28;;;;;;;9.06;100.00;99072.53;5050940;28;20048;-72
2023/12/21 10:11:28;;;;;;;12.45;2.83;;;;;;;9.08;100.00;99072.44;5054750;28;20062;-72
2023/12/21 10:14:19;;;;;;;9.48;2.10;;;;;;;9.09;100.00;99088.19;5067938;28;20102;-73
2023/12/21 10:17:09;;;;;;;16.85;2.63;;;;;;;9.13;100.00;99095.88;5062165;28;20436;-73
2023/12/21 10:19:55;;;;;;;13.27;2.40;;;;;;;9.15;100.00;99091.38;5040606;28;22125;-72
2023/12/21 10:22:45;;;;;;;16.73;2.28;;;;;;;9.22;100.00;99095.28;5039104;28;20040;-73
2023/12/21 10:25:31;;;;;;;13.98;2.58;;;;;;;9.25;100.00;99084.50;5038094;28;20044;-72
2023/12/21 10:28:17;;;;;;;18.20;2.50;;;;;;;9.28;100.00;99065.81;5041514;28;20049;-72
2023/12/21 10:31:04;;;;;;;15.73;2.28;;;;;;;9.30;100.00;99071.84;5041127;28;20400;-72
2023/12/21 10:33:49;;;;;;;15.82;2.25;;;;;;;9.31;100.00;99073.50;5038574;28;20043;-72
2023/12/21 10:36:42;;;;;;;14.07;2.38;;;;;;;9.31;100.00;99083.25;5040830;28;20044;-74
2023/12/21 10:39:30;;;;;;;11.95;2.15;;;;;;;9.31;100.00;99073.50;5037981;28;20045;-73
2023/12/21 10:42:15;;;;;;;8.25;1.88;;;;;;;9.34;100.00;99073.31;5040647;28;20036;-70
2023/12/21 10:45:02;;;;;;;10.75;2.00;;;;;;;9.35;100.00;99071.50;5067032;28;20040;-72
2023/12/21 10:47:52;;;;;;;19.88;2.65;;;;;;;9.35;100.00;99075.00;5039493;28;20067;-72
2023/12/21 10:50:38;;;;;;;11.10;2.25;;;;;;;9.37;100.00;99077.53;5042035;28;20045;-74
2023/12/21 10:53:25;;;;;;;13.93;2.00;;;;;;;9.36;100.00;99071.41;5042321;28;20047;-73
2023/12/21 10:56:10;;;;;;;12.63;2.55;;;;;;;9.37;100.00;99069.59;5037152;28;20044;-73
2023/12/21 10:58:56;;;;;;;21.73;2.35;;;;;;;9.37;100.00;99072.25;5052061;28;20142;-71
2023/12/21 11:01:42;;;;;;;10.45;2.17;;;;;;;9.34;100.00;99065.41;5038679;28;20553;-73
2023/12/21 11:04:28;;;;;;;14.18;2.15;;;;;;;9.32;100.00;99066.44;5058471;27;20569;-73
2023/12/21 11:07:15;;;;;;;14.30;2.67;;;;;;;9.32;100.00;99072.56;5038036;28;20048;-74
2023/12/21 11:10:02;;;;;;;13.85;2.75;;;;;;;9.34;100.00;99056.63;5027615;28;20052;-73
2023/12/21 11:12:48;;;;;;;14.90;2.80;;;;;;;9.34;100.00;99043.41;5037576;28;20608;-74
2023/12/21 11:15:34;;;;;;;16.73;2.35;;;;;;;9.36;100.00;99031.78;5039243;28;20178;-72
2023/12/21 11:18:21;;;;;;;10.38;2.05;;;;;;;9.38;100.00;99034.34;5039247;28;20029;-73
2023/12/21 11:21:08;;;;;;;10.27;2.67;;;;;;;9.41;100.00;99057.06;5063332;28;20044;-73
2023/12/21 11:23:53;;;;;;;13.10;2.33;;;;;;;9.43;100.00;99034.00;5038122;28;20033;-74
2023/12/21 11:26:39;;;;;;;10.25;2.40;;;;;;;9.46;100.00;99054.91;5022695;28;20839;-75
2023/12/21 11:29:27;;;;;;;13.90;2.60;;;;;;;9.49;100.00;99049.44;5029034;28;20040;-72
2023/12/21 11:32:22;;;;;;;11.75;2.33;;;;;;;9.50;100.00;99040.56;5033308;28;20555;-74
2023/12/21 11:35:21;;;;;;;17.75;2.72;;;;;;;9.52;100.00;99065.06;5058059;28;20039;-73
2023/12/21 11:38:06;;;;;;;9.70;2.13;;;;;;;9.52;100.00;99038.66;5031769;28;20041;-71
2023/12/21 11:40:52;;;;;;;9.65;2.00;;;;;;;9.52;100.00;99022.78;5032692;28;20871;-71
2023/12/21 11:43:38;;;;;;;12.55;2.40;;;;;;;9.53;100.00;99021.00;5025759;28;20036;-74
2023/12/21 11:46:24;;;;;;;11.07;2.08;;;;;;;9.52;100.00;99025.44;5030927;28;20067;-73
2023/12/21 11:49:12;;;;;;;14.57;2.10;;;;;;;9.53;100.00;99016.56;5031846;28;20114;-72
2023/12/21 11:51:59;;;;;;;18.35;2.88;;;;;;;9.54;100.00;99020.91;5055380;27;20043;-72
2023/12/21 11:54:48;;;;;;;10.18;2.35;;;;;;;9.53;100.00;99037.69;5056544;27;20278;-73
2023/12/21 11:57:39;;;;;;;9.27;2.08;;;;;;;9.53;100.00;99027.13;5051505;27;20048;-72
2023/12/21 12:00:27;;;;;;;10.80;1.90;;;;;;;9.51;100.00;99027.25;5054241;28;20101;-74
2023/12/21 12:03:14;;;;;;;15.57;2.15;;;;;;;9.50;100.00;99020.25;5032574;28;20134;-74
2023/12/21 12:06:00;;;;;;;10.20;2.30;;;;;;;9.52;100.00;99004.31;5028441;28;20048;-71
2023/12/21 12:08:49;;;;;;;15.10;2.05;;;;;;;9.56;100.00;99023.44;5031583;28;20087;-73
2023/12/21 12:11:34;;;;;;;11.40;2.78;;;;;;;9.57;100.00;99022.47;5031072;28;21243;-71
2023/12/21 12:14:20;;;;;;;12.25;2.53;;;;;;;9.56;100.00;99028.72;5029625;28;20034;-72
2023/12/21 12:17:06;;;;;;;11.30;1.98;;;;;;;9.54;100.00;99034.13;5045276;28;20040;-73
2023/12/21 12:19:54;;;;;;;9.50;2.22;;;;;;;9.55;100.00;99024.38;5030297;28;20537;-73
2023/12/21 12:22:40;;;;;;;14.80;2.53;;;;;;;9.53;100.00;99034.22;5031379;28;20029;-73
2023/12/21 12:25:25;;;;;;;11.57;2.60;;;;;;;9.53;100.00;99037.69;5031196;28;20036;-72
2023/12/21 12:28:11;;;;;;;18.05;2.15;;;;;;;9.51;100.00;99027.25;5027109;28;20041;-73
2023/12/21 12:30:57;;;;;;;17.95;2.40;;;;;;;9.53;100.00;99029.75;5020420;28;20048;-73
2023/12/21 12:33:47;;;;;;;24.02;3.65;;;;;;;9.49;100.00;99029.13;5031612;28;20424;-73
2023/12/21 12:36:32;;;;;;;12.25;2.33;;;;;;;9.45;100.00;99019.75;5030968;28;20106;-75
2023/12/21 12:39:23;;;;;;;11.63;2.45;;;;;;;9.41;100.00;99006.88;5029145;28;20044;-73
2023/12/21 12:42:09;;;;;;;15.40;2.47;;;;;;;9.40;100.00;99013.09;5032917;28;20810;-74
2023/12/21 12:44:54;;;;;;;13.98;2.45;;;;;;;9.36;100.00;99034.44;5040192;28;20553;-75
2023/12/21 12:47:43;;;;;;;13.70;2.42;;;;;;;9.31;100.00;99014.59;5043032;28;20079;-73
2023/12/21 12:50:30;;;;;;;13.13;2.08;;;;;;;9.28;100.00;99020.94;5031509;28;20111;-72
2023/12/21 12:53:16;;;;;;;12.50;3.05;;;;;;;9.27;100.00;99027.16;5034485;28;20079;-73
2023/12/21 12:56:04;;;;;;;11.05;2.40;;;;;;;9.31;100.00;99031.25;5033328;28;20076;-73
2023/12/21 12:58:49;;;;;;;16.63;2.33;;;;;;;9.33;100.00;99034.63;5032798;28;20116;-73
2023/12/21 13:01:34;;;;;;;14.23;2.95;;;;;;;9.35;100.00;99032.75;5044442;28;20102;-74
2023/12/21 13:04:20;;;;;;;15.93;2.97;;;;;;;9.36;100.00;99017.72;5052669;28;20073;-74
2023/12/21 13:07:05;;;;;;;15.90;3.03;;;;;;;9.35;100.00;99022.19;5029449;28;20925;-73
2023/12/21 13:09:51;;;;;;;14.75;2.67;;;;;;;9.33;100.00;99026.72;5031053;28;20086;-73
2023/12/21 13:12:36;;;;;;;15.10;2.83;;;;;;;9.26;100.00;99025.44;5027077;28;20556;-72
2023/12/21 13:15:21;;;;;;;12.40;2.47;;;;;;;9.19;100.00;99029.47;5032184;28;20048;-72
2023/12/21 13:18:07;;;;;;;15.52;2.80;;;;;;;9.14;100.00;99044.81;5032757;28;20078;-72
2023/12/21 13:20:52;;;;;;;20.73;2.72;;;;;;;9.12;100.00;99031.69;5022555;28;20048;-73
2023/12/21 13:23:38;;;;;;;13.95;2.60;;;;;;;9.10;100.00;99049.44;5058159;28;20041;-70
2023/12/21 13:26:23;;;;;;;13.98;2.63;;;;;;;9.07;100.00;99029.38;5030754;28;20059;-73
2023/12/21 13:29:09;;;;;;;18.42;3.08;;;;;;;9.04;100.00;99042.75;5026476;28;20048;-73
2023/12/21 13:31:54;;;;;;;15.55;2.67;;;;;;;9.04;100.00;99012.91;5033792;28;20068;-73
2023/12/21 13:34:40;;;;;;;9.95;2.20;;;;;;;8.99;100.00;99004.44;5055464;28;20044;-73
2023/12/21 13:37:25;;;;;;;11.75;2.40;;;;;;;8.96;100.00;99034.53;5029566;28;20059;-73
2023/12/21 13:40:11;;;;;;;15.52;2.63;;;;;;;8.93;100.00;99037.38;5057584;28;20238;-74
2023/12/21 13:42:56;;;;;;;17.60;2.72;;;;;;;8.88;100.00;99034.19;5025908;28;20129;-73
2023/12/21 13:45:42;;;;;;;15.95;2.53;;;;;;;8.87;100.00;99035.16;5029232;28;20037;-72
2023/12/21 13:48:28;;;;;;;15.48;3.05;;;;;;;8.87;100.00;99048.34;5041854;28;20048;-73
2023/12/21 13:51:13;;;;;;;21.23;2.72;;;;;;;8.85;100.00;99034.41;5032142;28;20145;-73
2023/12/21 13:54:01;;;;;;;17.80;3.38;;;;;;;8.83;100.00;99055.63;5030952;28;20052;-73
2023/12/21 13:56:47;;;;;;;18.33;3.00;;;;;;;8.81;100.00;99047.81;5031016;28;20044;-73
2023/12/21 13:59:32;;;;;;;24.10;3.20;;;;;;;8.82;100.00;99067.97;5037032;28;20045;-72
2023/12/21 14:02:18;;;;;;;11.68;2.90;;;;;;;8.81;100.00;99055.72;5045130;28;20044;-74
2023/12/21 14:05:03;;;;;;;10.68;2.40;;;;;;;8.80;100.00;99175.41;5033601;28;21164;-73
2023/12/21 14:07:50;;;;;;;3.42;1.23;;;;;;;8.05;100.00;99165.16;5033164;28;20257;-73
2023/12/21 14:10:35;;;;;;;8.07;1.40;;;;;;;7.03;100.00;99163.19;5031350;28;20044;-73
2023/12/21 14:13:21;;;;;;;7.85;1.60;;;;;;;6.46;100.00;99154.09;5033638;28;20060;-73
2023/12/21 14:16:06;;;;;;;10.60;1.70;;;;;;;6.06;100.00;99138.72;5031986;28;20048;-73
2023/12/21 14:18:52;;;;;;;10.07;2.05;;;;;;;5.77;100.00;99153.41;5031410;28;20052;-73
2023/12/21 14:21:37;;;;;;;13.73;1.98;;;;;;;5.57;100.00;99163.16;5037289;28;20049;-73
2023/12/21 14:24:23;;;;;;;7.50;1.55;;;;;;;5.38;100.00;99153.59;5035305;28;20036;-73
2023/12/21 14:27:08;;;;;;;16.88;2.30;;;;;;;5.28;100.00;99145.34;5032010;28;20171;-71
2023/12/21 14:29:54;;;;;;;12.40;2.20;;;;;;;5.23;100.00;99120.25;5032998;28;20567;-74
2023/12/21 14:32:39;;;;;;;12.07;1.80;;;;;;;5.23;100.00;99123.72;5033935;28;20392;-72
2023/12/21 14:35:27;;;;;;;23.52;3.33;;;;;;;5.25;100.00;99152.50;5033617;28;20079;-74
2023/12/21 14:38:12;;;;;;;7.93;1.60;;;;;;;5.29;100.00;99154.06;5037724;28;20379;-73
2023/12/21 14:40:58;;;;;;;9.85;1.85;;;;;;;5.35;100.00;99201.00;5036880;28;20043;-73
2023/12/21 14:43:43;;;;;;;12.57;1.92;;;;;;;5.42;100.00;99183.16;5028706;28;20049;-72
2023/12/21 14:46:29;;;;;;;13.30;2.63;;;;;;;5.46;100.00;99189.97;5034225;28;20056;-74
2023/12/21 14:49:14;;;;;;;5.18;1.27;;;;;;;5.47;100.00;99182.91;5035162;28;20052;-73
2023/12/21 14:51:59;;;;;;;5.63;1.50;;;;;;;5.43;100.00;99174.34;5033054;28;20148;-73
2023/12/21 14:54:45;;;;;;;9.63;1.67;;;;;;;5.41;100.00;99200.66;5036559;28;20051;-72
2023/12/21 14:57:30;;;;;;;5.80;1.52;;;;;;;5.39;100.00;99178.91;4912071;28;22370;-73
2023/12/21 15:00:16;;;;;;;12.32;2.33;;;;;;;5.39;100.00;99188.56;4980321;28;22394;-73
2023/12/21 15:03:02;;;;;;;8.57;2.38;;;;;;;5.38;100.00;99226.22;4984059;28;20639;-72
2023/12/21 15:05:48;;;;;;;12.43;2.85;;;;;;;5.39;100.00;99209.56;4982208;28;20624;-72
2023/12/21 15:08:33;;;;;;;17.52;2.58;;;;;;;5.40;100.00;99248.00;4980586;28;20057;-71
2023/12/21 15:11:21;;;;;;;7.97;1.80;;;;;;;5.27;100.00;99319.47;4979806;28;20050;-70
2023/12/21 15:14:06;;;;;;;7.75;1.73;;;;;;;5.05;100.00;99240.09;4979067;28;20045;-72
2023/12/21 15:16:52;;;;;;;6.00;1.75;;;;;;;4.86;100.00;99178.84;4979292;28;20050;-71
2023/12/21 15:19:38;;;;;;;8.93;1.98;;;;;;;4.79;100.00;99208.09;4980479;28;20070;-72
2023/12/21 15:22:24;;;;;;;15.43;2.88;;;;;;;4.72;100.00;99208.38;4978765;28;20132;-72
2023/12/21 15:25:09;;;;;;;10.55;2.42;;;;;;;4.64;100.00;99207.03;4981142;28;20437;-72
2023/12/21 15:27:55;;;;;;;11.60;2.72;;;;;;;4.62;100.00;99204.47;4979825;28;20133;-73
2023/12/21 15:30:40;;;;;;;14.95;2.65;;;;;;;4.60;100.00;99216.81;4981893;28;20476;-73
2023/12/21 15:33:26;;;;;;;10.68;2.58;;;;;;;4.60;100.00;99196.69;4993012;28;20125;-73
2023/12/21 15:36:12;;;;;;;9.90;2.35;;;;;;;4.60;100.00;99188.84;4983614;28;20042;-73
2023/12/21 15:38:57;;;;;;;11.50;3.15;;;;;;;4.67;100.00;99218.22;4979039;28;20076;-74
2023/12/21 15:41:46;;;;;;;10.73;2.22;;;;;;;4.71;100.00;99208.44;4991537;28;20061;-74
2023/12/21 15:44:40;;;;;;;19.88;3.63;;;;;;;4.78;100.00;99216.88;4978771;28;20114;-74
2023/12/21 15:47:28;;;;;;;14.60;3.03;;;;;;;4.87;100.00;99217.28;4983369;28;20096;-75
2023/12/21 15:50:16;;;;;;;14.98;3.13;;;;;;;4.96;100.00;99220.38;4966058;28;20052;-73
2023/12/21 15:53:02;;;;;;;17.42;2.90;;;;;;;5.01;100.00;99240.22;4973499;28;20030;-74
2023/12/21 15:55:48;;;;;;;14.00;3.35;;;;;;;5.13;100.00;99261.56;4979853;28;20042;-74
2023/12/21 15:58:34;;;;;;;18.10;4.05;;;;;;;5.25;100.00;99258.34;5005151;28;20037;-74
2023/12/21 16:01:19;;;;;;;15.60;3.08;;;;;;;5.33;100.00;99284.19;4982425;28;20040;-74
2023/12/21 16:04:04;;;;;;;20.17;3.20;;;;;;;5.45;100.00;99272.22;4991903;28;20034;-73
2023/12/21 16:06:50;;;;;;;12.85;3.70;;;;;;;5.55;100.00;99276.13;4983812;28;20061;-75
2023/12/21 16:09:36;;;;;;;20.20;3.05;;;;;;;5.60;100.00;99285.56;4980358;28;20284;-73
2023/12/21 16:12:21;;;;;;;23.48;3.85;;;;;;;5.67;100.00;99287.78;4982344;28;21247;-73
2023/12/21 16:15:07;;;;;;;19.92;3.15;;;;;;;5.64;100.00;99271.31;4978158;28;20171;-72
2023/12/21 16:17:53;;;;;;;22.98;3.70;;;;;;;5.63;100.00;99285.38;4979375;28;20049;-75
2023/12/21 16:20:39;;;;;;;17.48;4.18;;;;;;;5.66;100.00;99269.50;4977162;28;20049;-73
2023/12/21 16:23:24;;;;;;;25.38;4.47;;;;;;;5.68;100.00;99281.59;4976834;28;20187;-75
2023/12/21 16:26:10;;;;;;;16.02;3.67;;;;;;;5.67;100.00;99303.53;4978217;28;20042;-72
2023/12/21 16:28:55;;;;;;;15.57;3.42;;;;;;;5.67;100.00;99307.94;4976229;28;20045;-74
2023/12/21 16:31:41;;;;;;;23.33;4.32;;;;;;;5.64;100.00;99300.22;4978732;28;20050;-74
2023/12/21 16:34:27;;;;;;;25.10;4.53;;;;;;;5.63;100.00;99298.50;5003434;28;20104;-73
2023/12/21 16:37:12;;;;;;;23.40;3.13;;;;;;;5.60;100.00;99325.78;4980112;28;20049;-73
2023/12/21 16:39:58;;;;;;;17.52;3.67;;;;;;;5.58;100.00;99317.97;4981492;28;20124;-71
2023/12/21 16:42:43;;;;;;;20.27;3.75;;;;;;;5.56;100.00;99319.00;4972537;28;20054;-71
2023/12/21 16:45:28;;;;;;;20.45;3.90;;;;;;;5.54;100.00;99347.94;4979718;28;20532;-72
2023/12/21 16:48:16;;;;;;;18.02;3.55;;;;;;;5.57;100.00;99350.41;4980237;28;20045;-74
2023/12/21 16:51:01;;;;;;;20.00;4.28;;;;;;;5.57;100.00;99345.16;5004497;28;20117;-74
2023/12/21 16:53:46;;;;;;;14.95;3.88;;;;;;;5.60;100.00;99317.88;5002700;28;20060;-73
2023/12/21 16:56:32;;;;;;;18.92;3.92;;;;;;;5.60;100.00;99344.16;4975335;28;20601;-73
2023/12/21 16:59:19;;;;;;;22.90;3.90;;;;;;;5.62;100.00;99337.03;4988654;28;20041;-73
2023/12/21 17:02:05;;;;;;;18.92;2.70;;;;;;;5.67;100.00;99345.53;4980273;28;20080;-72
2023/12/21 17:04:51;;;;;;;17.13;3.88;;;;;;;5.70;100.00;99350.66;4976804;28;20648;-73
2023/12/21 17:07:38;;;;;;;30.83;4.20;;;;;;;5.68;100.00;99368.25;4977928;28;20069;-74
2023/12/21 17:10:23;;;;;;;29.63;4.50;;;;;;;5.68;100.00;99360.38;4991122;28;20045;-73
2023/12/21 17:13:09;;;;;;;21.50;3.95;;;;;;;5.67;100.00;99361.31;4963110;28;20351;-72
2023/12/21 17:15:54;;;;;;;24.60;3.58;;;;;;;5.71;100.00;99377.75;4975032;28;20050;-72
2023/12/21 17:18:39;;;;;;;25.02;3.95;;;;;;;5.76;100.00;99361.78;4975911;28;20046;-72
2023/12/21 17:21:25;;;;;;;20.70;3.83;;;;;;;5.80;100.00;99371.22;5004384;28;20303;-72
2023/12/21 17:24:11;;;;;;;19.67;3.50;;;;;;;5.87;100.00;99377.03;4971364;28;20046;-73
2023/12/21 17:26:57;;;;;;;15.45;3.67;;;;;;;5.94;100.00;99396.81;4975260;28;20507;-72
2023/12/21 17:29:42;;;;;;;22.83;4.25;;;;;;;5.97;100.00;99401.91;4978957;28;20048;-72
2023/12/21 17:32:27;;;;;;;17.38;3.22;;;;;;;5.96;100.00;99394.94;4982717;28;20052;-74
2023/12/21 17:35:13;;;;;;;13.70;3.38;;;;;;;5.94;100.00;99400.28;5007162;28;20041;-71
2023/12/21 17:37:59;;;;;;;16.23;3.95;;;;;;;5.92;100.00;99410.00;4977751;28;20060;-75
2023/12/21 17:40:44;;;;;;;16.92;3.50;;;;;;;5.85;100.00;99409.44;4992497;28;20044;-72
2023/12/21 17:43:30;;;;;;;13.43;3.40;;;;;;;5.80;100.00;99423.75;4979758;28;20048;-73
2023/12/21 17:46:17;;;;;;;16.67;3.35;;;;;;;5.73;100.00;99445.97;5009096;28;20581;-73
2023/12/21 17:49:02;;;;;;;20.63;3.60;;;;;;;5.71;100.00;99467.03;4981071;28;20038;-73
2023/12/21 17:51:48;;;;;;;26.42;3.47;;;;;;;5.67;100.00;99457.63;5010896;28;20435;-72
2023/12/21 17:54:33;;;;;;;13.73;2.55;;;;;;;5.64;100.00;99468.25;4982322;28;20070;-74
2023/12/21 17:57:19;;;;;;;14.05;2.75;;;;;;;5.63;100.00;99461.31;4980502;28;20041;-71
2023/12/21 18:00:06;;;;;;;19.02;3.05;;;;;;;5.60;100.00;99467.56;4984229;28;20047;-70
2023/12/21 18:02:51;;;;;;;15.60;3.95;;;;;;;5.56;100.00;99466.84;4980141;28;20044;-71
2023/12/21 18:05:36;;;;;;;14.30;3.72;;;;;;;5.52;100.00;99480.19;4984665;28;20045;-72
2023/12/21 18:08:22;;;;;;;12.27;3.55;;;;;;;5.51;100.00;99484.59;4980308;28;20177;-72
2023/12/21 18:11:11;;;;;;;21.05;3.75;;;;;;;5.46;100.00;99491.84;4981402;28;20046;-72
2023/12/21 18:13:56;;;;;;;18.55;3.70;;;;;;;5.45;100.00;99508.47;5007923;28;20063;-72
2023/12/21 18:16:45;;;;;;;19.50;4.05;;;;;;;5.43;100.00;99498.06;4991408;28;20050;-73
2023/12/21 18:19:30;;;;;;;18.42;4.80;;;;;;;5.39;100.00;99487.78;4974911;28;20095;-73
2023/12/21 18:22:16;;;;;;;20.52;3.25;;;;;;;5.40;100.00;99479.81;4983628;28;20045;-73
2023/12/21 18:25:02;;;;;;;15.07;3.75;;;;;;;5.41;100.00;99493.81;4993538;28;21712;-74
2023/12/21 18:27:49;;;;;;;16.33;2.88;;;;;;;5.38;100.00;99509.69;4982332;28;20438;-73
2023/12/21 18:30:38;;;;;;;14.23;3.58;;;;;;;5.40;100.00;99492.13;5010456;28;20178;-73
2023/12/21 18:33:23;;;;;;;18.70;3.08;;;;;;;5.43;100.00;99507.72;4988479;28;20046;-74
2023/12/21 18:36:09;;;;;;;17.80;3.13;;;;;;;5.42;100.00;99516.50;4981059;28;20058;-73
2023/12/21 18:38:54;;;;;;;22.17;4.90;;;;;;;5.41;100.00;99501.69;4981377;28;20041;-71
2023/12/21 18:41:40;;;;;;;21.65;3.63;;;;;;;5.43;100.00;99520.84;4981085;28;20077;-72
2023/12/21 18:44:26;;;;;;;15.57;3.00;;;;;;;5.47;100.00;99530.28;4981248;28;20125;-72
2023/12/21 18:47:11;;;;;;;24.35;4.70;;;;;;;5.46;100.00;99525.97;5009766;28;20727;-72
2023/12/21 18:49:57;;;;;;;14.98;2.88;;;;;;;5.47;100.00;99572.28;4984508;28;20496;-70
2023/12/21 18:52:42;;;;;;;15.23;2.92;;;;;;;5.47;100.00;99540.78;4981281;28;20740;-71
2023/12/21 18:55:27;;;;;;;20.55;2.97;;;;;;;5.50;100.00;99563.44;4982127;28;20046;-72
2023/12/21 18:58:13;;;;;;;13.52;3.25;;;;;;;5.48;100.00;99566.13;5009022;28;21262;-71
2023/12/21 19:00:58;;;;;;;14.52;3.13;;;;;;;5.50;100.00;99564.25;4989132;28;20057;-71
2023/12/21 19:03:44;;;;;;;11.88;2.83;;;;;;;5.50;100.00;99569.50;4983693;28;20054;-73
2023/12/21 19:06:29;;;;;;;15.38;3.08;;;;;;;5.52;100.00;99558.94;4982740;28;22076;-71
2023/12/21 19:09:15;;;;;;;18.17;3.00;;;;;;;5.46;100.00;99562.72;4979671;28;20068;-71
2023/12/21 19:12:00;;;;;;;15.55;3.58;;;;;;;5.46;100.00;99564.47;4980895;28;20176;-72
2023/12/21 19:14:47;;;;;;;23.23;2.97;;;;;;;5.44;100.00;99572.41;4984697;28;20068;-72
2023/12/21 19:17:33;;;;;;;14.43;3.55;;;;;;;5.49;100.00;99570.44;4989464;28;20050;-72
2023/12/21 19:20:19;;;;;;;20.60;4.03;;;;;;;5.54;100.00;99571.09;4981216;28;20125;-72
2023/12/21 19:23:04;;;;;;;18.25;3.75;;;;;;;5.55;100.00;99585.91;4983872;28;20057;-73
2023/12/21 19:25:49;;;;;;;19.35;3.58;;;;;;;5.57;100.00;99578.81;5007730;28;20056;-73
2023/12/21 19:28:35;;;;;;;24.77;5.93;;;;;;;5.57;100.00;99588.50;4982236;28;20045;-72
2023/12/21 19:31:23;;;;;;;19.38;4.00;;;;;;;5.60;100.00;99588.34;5005169;28;20481;-72
2023/12/21 19:34:09;;;;;;;13.63;2.83;;;;;;;5.59;100.00;99589.25;5007402;28;20121;-72
2023/12/21 19:36:54;;;;;;;18.25;3.55;;;;;;;5.63;100.00;99582.09;4981271;28;20038;-71
2023/12/21 19:39:40;;;;;;;14.57;2.60;;;;;;;5.66;100.00;99579.34;4979483;28;20177;-72
2023/12/21 19:42:25;;;;;;;16.38;3.03;;;;;;;5.71;100.00;99595.72;4979461;28;20152;-72
2023/12/21 19:45:11;;;;;;;17.63;3.17;;;;;;;5.72;100.00;99584.28;4991253;28;20783;-73
2023/12/21 19:47:56;;;;;;;18.55;3.55;;;;;;;5.73;100.00;99604.41;4977090;28;21267;-72
2023/12/21 19:50:44;;;;;;;22.52;3.45;;;;;;;5.74;100.00;99598.22;4979861;28;20449;-72
2023/12/21 19:53:30;;;;;;;19.02;3.53;;;;;;;5.75;100.00;99586.81;4978440;28;20034;-73
2023/12/21 19:56:15;;;;;;;18.70;3.33;;;;;;;5.76;100.00;99599.00;4988288;28;20136;-73
2023/12/21 19:59:01;;;;;;;15.10;3.33;;;;;;;5.75;100.00;99605.19;4990652;28;20360;-74
2023/12/21 20:01:49;;;;;;;18.70;3.40;;;;;;;5.69;100.00;99602.84;4980750;28;20042;-74
2023/12/21 20:04:36;;;;;;;15.07;4.00;;;;;;;5.64;100.00;99604.81;4969016;28;20152;-74
2023/12/21 20:07:22;;;;;;;16.70;2.83;;;;;;;5.63;100.00;99606.59;4976439;28;20058;-72
2023/12/21 20:10:07;;;;;;;13.75;2.55;;;;;;;5.65;100.00;99624.88;4980496;28;20066;-74
2023/12/21 20:12:53;;;;;;;18.77;3.00;;;;;;;5.68;100.00;99625.59;4978261;28;20050;-74
2023/12/21 20:15:38;;;;;;;21.80;3.00;;;;;;;5.69;100.00;99629.09;4979591;28;20653;-72
2023/12/21 20:18:24;;;;;;;16.52;2.80;;;;;;;5.66;100.00;99609.06;5003269;28;20530;-74
2023/12/21 20:21:10;;;;;;;11.85;3.08;;;;;;;5.62;100.00;99610.13;4974076;28;20053;-73
2023/12/21 20:23:56;;;;;;;16.52;2.90;;;;;;;5.60;100.00;99609.34;4978582;28;20038;-73
2023/12/21 20:26:42;;;;;;;17.65;2.45;;;;;;;5.60;100.00;99629.50;4978181;28;20157;-73
2023/12/21 20:29:27;;;;;;;14.05;2.33;;;;;;;5.64;100.00;99633.69;5002361;28;20050;-74
2023/12/21 20:32:13;;;;;;;12.02;2.65;;;;;;;5.66;100.00;99681.78;4977756;28;20038;-72
2023/12/21 20:34:59;;;;;;;12.90;3.05;;;;;;;5.65;100.00;99696.66;4980095;28;20046;-73
2023/12/21 20:37:45;;;;;;;12.27;1.98;;;;;;;5.39;100.00;99680.25;5000142;28;20096;-73
2023/12/21 20:40:35;;;;;;;8.77;2.58;;;;;;;4.97;100.00;99673.25;4987658;28;20041;-72
2023/12/21 20:43:21;;;;;;;7.43;2.08;;;;;;;4.70;100.00;99683.94;4976557;28;20283;-72
2023/12/21 20:46:12;;;;;;;6.80;1.60;;;;;;;4.59;100.00;99673.88;5001963;28;20736;-73
2023/12/21 20:48:58;;;;;;;6.32;1.58;;;;;;;4.54;100.00;99692.41;4982625;28;20056;-72
2023/12/21 20:51:44;;;;;;;16.70;1.92;;;;;;;4.55;100.00;99688.00;4975984;28;20124;-75
2023/12/21 20:54:32;;;;;;;9.18;1.50;;;;;;;4.56;100.00;99689.72;4973061;28;20046;-73
2023/12/21 20:57:17;;;;;;;8.25;1.77;;;;;;;4.55;100.00;99690.63;4970228;28;20137;-73
2023/12/21 21:00:03;;;;;;;9.35;2.42;;;;;;;4.54;100.00;99702.03;4960662;28;20061;-74
2023/12/21 21:02:53;;;;;;;5.50;2.05;;;;;;;4.56;100.00;99700.19;4971881;28;20521;-74
2023/12/21 21:05:56;;;;;;;12.60;2.80;;;;;;;4.58;100.00;99703.63;4969486;28;20034;-74
2023/12/21 21:08:42;;;;;;;14.25;2.60;;;;;;;4.58;100.00;99703.63;4984746;28;20529;-73
2023/12/21 21:11:28;;;;;;;9.23;2.20;;;;;;;4.56;100.00;99701.06;4974879;28;20072;-73
2023/12/21 21:14:13;;;;;;;16.13;3.33;;;;;;;4.58;100.00;99706.25;4969734;28;20053;-74
2023/12/21 21:16:59;;;;;;;12.35;2.83;;;;;;;4.58;100.00;99714.94;5002890;28;21024;-73
2023/12/21 21:19:44;;;;;;;19.65;3.00;;;;;;;4.60;100.00;99707.03;4970811;28;20053;-72
2023/12/21 21:22:29;;;;;;;13.80;3.65;;;;;;;4.66;100.00;99729.53;4975480;28;20163;-73
2023/12/21 21:25:15;;;;;;;14.73;3.63;;;;;;;4.75;100.00;99732.66;4974757;28;20045;-73
2023/12/21 21:28:00;;;;;;;16.60;3.90;;;;;;;4.84;100.00;99722.72;4970494;28;21233;-73
2023/12/21 21:30:46;;;;;;;15.93;3.53;;;;;;;4.91;100.00;99718.09;4985847;28;20121;-73
2023/12/21 21:33:31;;;;;;;19.98;3.58;;;;;;;4.97;100.00;99734.41;4956632;28;20062;-74
2023/12/21 21:36:17;;;;;;;21.20;3.85;;;;;;;5.08;100.00;99755.00;4975830;28;20038;-75
2023/12/21 21:39:05;;;;;;;8.50;2.80;;;;;;;5.05;100.00;99760.38;4975368;28;20034;-75
2023/12/21 21:41:50;;;;;;;9.80;2.13;;;;;;;4.83;100.00;99757.72;4982122;28;20781;-75
2023/12/21 21:44:35;;;;;;;16.30;3.00;;;;;;;4.66;100.00;99751.38;5008413;28;20147;-74
2023/12/21 21:47:21;;;;;;;11.70;2.80;;;;;;;4.55;100.00;99741.31;5007863;28;20052;-73
2023/12/21 21:50:07;;;;;;;17.33;2.38;;;;;;;4.53;100.00;99748.34;4993342;28;20072;-74
2023/12/21 21:52:52;;;;;;;13.30;2.63;;;;;;;4.52;100.00;99738.78;5009828;28;20503;-73
2023/12/21 21:55:39;;;;;;;11.95;2.60;;;;;;;4.54;100.00;99741.34;4983585;28;20042;-73
2023/12/21 21:58:24;;;;;;;13.00;2.40;;;;;;;4.58;100.00;99735.09;5007971;28;20456;-74
2023/12/21 22:01:09;;;;;;;21.20;3.08;;;;;;;4.63;100.00;99738.38;4985285;28;20100;-74